sensor_id;sensor_type;location;lat;lon;timestamp;temperature;humidity
17619;DHT22;8928;51.678;6.074;2024-02-15T07:11:09;11.00;99.90
17619;DHT22;8928;51.678;6.074;2024-02-15T07:13:56;11.00;99.90
17619;DHT22;8928;51.678;6.074;2024-02-15T07:16:46;11.00;99.90
17619;DHT22;8928;51.678;6.074;2024-02-15T07:19:34;11.00;99.90
17619;DHT22;8928;51.678;6.074;2024-02-15T07:22:22;11.10;99.90
17619;DHT22;8928;51.678;6.074;2024-02-15T07:25:10;11.10;99.90
17619;DHT22;8928;51.678;6.074;2024-02-15T07:27:58;11.10;99.90
17619;DHT22;8928;51.678;6.074;2024-02-15T07:30:45;11.10;99.90
17619;DHT22;8928;51.678;6.074;2024-02-15T07:33:34;11.10;99.90
17619;DHT22;8928;51.678;6.074;2024-02-15T07:36:22;11.10;99.90
17619;DHT22;8928;51.678;6.074;2024-02-15T07:39:09;11.10;99.90
17619;DHT22;8928;51.678;6.074;2024-02-15T07:41:58;11.20;99.90
17619;DHT22;8928;51.678;6.074;2024-02-15T07:44:47;11.20;99.90
17619;DHT22;8928;51.678;6.074;2024-02-15T07:47:34;11.20;99.90
17619;DHT22;8928;51.678;6.074;2024-02-15T07:50:21;11.20;99.90
17619;DHT22;8928;51.678;6.074;2024-02-15T07:53:08;11.20;99.90
17619;DHT22;8928;51.678;6.074;2024-02-15T07:55:57;11.10;99.90
17619;DHT22;8928;51.678;6.074;2024-02-15T07:58:46;11.10;99.90
17619;DHT22;8928;51.678;6.074;2024-02-15T08:01:35;11.10;99.90
17619;DHT22;8928;51.678;6.074;2024-02-15T08:04:22;11.10;99.90
17619;DHT22;8928;51.678;6.074;2024-02-15T08:07:10;11.20;99.90
17619;DHT22;8928;51.678;6.074;2024-02-15T08:09:57;11.20;99.90
17619;DHT22;8928;51.678;6.074;2024-02-15T08:12:46;11.20;99.90
17619;DHT22;8928;51.678;6.074;2024-02-15T08:15:38;11.20;99.90
17619;DHT22;8928;51.678;6.074;2024-02-15T08:18:26;11.20;99.90
17619;DHT22;8928;51.678;6.074;2024-02-15T08:21:14;11.30;99.90
17619;DHT22;8928;51.678;6.074;2024-02-15T08:24:02;11.30;99.90
17619;DHT22;8928;51.678;6.074;2024-02-15T08:50:11;11.40;99.90
17619;DHT22;8928;51.678;6.074;2024-02-15T08:52:58;11.40;99.90
17619;DHT22;8928;51.678;6.074;2024-02-15T08:55:46;11.40;99.90
17619;DHT22;8928;51.678;6.074;2024-02-15T08:58:33;11.50;99.90
17619;DHT22;8928;51.678;6.074;2024-02-15T09:01:20;11.50;99.90
17619;DHT22;8928;51.678;6.074;2024-02-15T09:04:08;11.50;99.90
17619;DHT22;8928;51.678;6.074;2024-02-15T09:06:57;11.60;99.90
17619;DHT22;8928;51.678;6.074;2024-02-15T09:09:44;11.70;99.90
17619;DHT22;8928;51.678;6.074;2024-02-15T09:12:31;11.70;99.90
17619;DHT22;8928;51.678;6.074;2024-02-15T09:15:18;11.80;99.90
17619;DHT22;8928;51.678;6.074;2024-02-15T09:18:05;11.80;99.90
17619;DHT22;8928;51.678;6.074;2024-02-15T09:20:55;11.90;99.90
17619;DHT22;8928;51.678;6.074;2024-02-15T09:23:44;11.90;99.90
17619;DHT22;8928;51.678;6.074;2024-02-15T09:44:33;12.00;99.90
17619;DHT22;8928;51.678;6.074;2024-02-15T09:47:21;12.10;99.90
17619;DHT22;8928;51.678;6.074;2024-02-15T09:50:12;12.10;99.90
17619;DHT22;8928;51.678;6.074;2024-02-15T09:52:59;12.10;99.90
17619;DHT22;8928;51.678;6.074;2024-02-15T09:55:48;12.10;99.90
17619;DHT22;8928;51.678;6.074;2024-02-15T09:58:36;12.20;99.90
17619;DHT22;8928;51.678;6.074;2024-02-15T10:01:25;12.20;99.90
17619;DHT22;8928;51.678;6.074;2024-02-15T10:04:14;12.30;99.90
17619;DHT22;8928;51.678;6.074;2024-02-15T10:07:02;12.40;99.90
17619;DHT22;8928;51.678;6.074;2024-02-15T10:09:49;12.40;99.90
17619;DHT22;8928;51.678;6.074;2024-02-15T10:12:38;12.40;99.90
17619;DHT22;8928;51.678;6.074;2024-02-15T10:15:30;12.40;99.90
17619;DHT22;8928;51.678;6.074;2024-02-15T10:18:20;12.50;99.90
17619;DHT22;8928;51.678;6.074;2024-02-15T10:21:08;12.60;99.90
17619;DHT22;8928;51.678;6.074;2024-02-15T10:24:04;12.60;99.90
17619;DHT22;8928;51.678;6.074;2024-02-15T10:26:59;12.70;99.90
17619;DHT22;8928;51.678;6.074;2024-02-15T10:29:49;12.80;99.90
17619;DHT22;8928;51.678;6.074;2024-02-15T10:32:36;12.90;99.90
17619;DHT22;8928;51.678;6.074;2024-02-15T10:35:24;12.90;99.90
17619;DHT22;8928;51.678;6.074;2024-02-15T10:38:12;12.90;99.90
17619;DHT22;8928;51.678;6.074;2024-02-15T10:41:03;12.90;99.90
17619;DHT22;8928;51.678;6.074;2024-02-15T10:43:51;12.90;99.90
17619;DHT22;8928;51.678;6.074;2024-02-15T10:46:40;13.00;99.90
17619;DHT22;8928;51.678;6.074;2024-02-15T10:49:28;13.00;99.90
17619;DHT22;8928;51.678;6.074;2024-02-15T10:52:18;13.00;99.90
17619;DHT22;8928;51.678;6.074;2024-02-15T10:55:08;13.00;99.90
17619;DHT22;8928;51.678;6.074;2024-02-15T10:58:01;13.00;99.90
17619;DHT22;8928;51.678;6.074;2024-02-15T11:00:50;13.10;99.90
17619;DHT22;8928;51.678;6.074;2024-02-15T11:03:44;13.20;99.90
17619;DHT22;8928;51.678;6.074;2024-02-15T11:06:38;13.30;99.90
17619;DHT22;8928;51.678;6.074;2024-02-15T11:09:29;13.40;99.90
17619;DHT22;8928;51.678;6.074;2024-02-15T11:12:16;13.40;99.90
17619;DHT22;8928;51.678;6.074;2024-02-15T11:15:04;13.40;99.90
17619;DHT22;8928;51.678;6.074;2024-02-15T11:17:52;13.30;99.90
17619;DHT22;8928;51.678;6.074;2024-02-15T11:20:46;13.30;99.90
17619;DHT22;8928;51.678;6.074;2024-02-15T11:23:35;13.20;99.90
17619;DHT22;8928;51.678;6.074;2024-02-15T11:26:45;13.20;99.90
17619;DHT22;8928;51.678;6.074;2024-02-15T11:29:48;13.10;99.90
17619;DHT22;8928;51.678;6.074;2024-02-15T11:32:38;13.20;99.90
17619;DHT22;8928;51.678;6.074;2024-02-15T11:35:26;13.20;99.90
17619;DHT22;8928;51.678;6.074;2024-02-15T11:38:27;13.20;99.90
17619;DHT22;8928;51.678;6.074;2024-02-15T11:41:18;13.30;99.90
17619;DHT22;8928;51.678;6.074;2024-02-15T11:44:16;13.30;99.90
17619;DHT22;8928;51.678;6.074;2024-02-15T11:47:03;13.40;99.90
17619;DHT22;8928;51.678;6.074;2024-02-15T11:49:53;13.60;99.90
17619;DHT22;8928;51.678;6.074;2024-02-15T11:52:41;13.60;99.90
17619;DHT22;8928;51.678;6.074;2024-02-15T11:55:28;13.70;99.90
17619;DHT22;8928;51.678;6.074;2024-02-15T11:58:17;13.70;99.90
17619;DHT22;8928;51.678;6.074;2024-02-15T12:01:09;13.70;99.90
17619;DHT22;8928;51.678;6.074;2024-02-15T12:04:14;13.90;99.90
17619;DHT22;8928;51.678;6.074;2024-02-15T12:07:19;14.00;99.90
17619;DHT22;8928;51.678;6.074;2024-02-15T12:10:24;14.10;99.90
17619;DHT22;8928;51.678;6.074;2024-02-15T12:13:28;14.10;99.90
17619;DHT22;8928;51.678;6.074;2024-02-15T12:16:35;14.20;99.90
17619;DHT22;8928;51.678;6.074;2024-02-15T12:19:39;14.30;99.90
17619;DHT22;8928;51.678;6.074;2024-02-15T12:22:28;14.40;99.90
17619;DHT22;8928;51.678;6.074;2024-02-15T12:25:16;14.50;99.90
17619;DHT22;8928;51.678;6.074;2024-02-15T12:28:06;14.80;99.90
17619;DHT22;8928;51.678;6.074;2024-02-15T12:30:55;14.90;99.90
17619;DHT22;8928;51.678;6.074;2024-02-15T12:33:44;15.10;99.90
17619;DHT22;8928;51.678;6.074;2024-02-15T12:36:32;15.10;99.90
17619;DHT22;8928;51.678;6.074;2024-02-15T12:39:24;15.10;99.90
17619;DHT22;8928;51.678;6.074;2024-02-15T12:42:13;15.20;99.90
17619;DHT22;8928;51.678;6.074;2024-02-15T12:45:00;15.20;99.90
17619;DHT22;8928;51.678;6.074;2024-02-15T12:47:50;15.20;99.90
17619;DHT22;8928;51.678;6.074;2024-02-15T12:50:39;15.40;99.90
17619;DHT22;8928;51.678;6.074;2024-02-15T12:53:26;15.50;99.90
17619;DHT22;8928;51.678;6.074;2024-02-15T12:56:20;15.60;99.90
17619;DHT22;8928;51.678;6.074;2024-02-15T12:59:09;15.80;99.90
17619;DHT22;8928;51.678;6.074;2024-02-15T13:01:58;16.00;99.90
17619;DHT22;8928;51.678;6.074;2024-02-15T13:04:45;16.10;99.90
17619;DHT22;8928;51.678;6.074;2024-02-15T13:07:34;16.00;99.90
17619;DHT22;8928;51.678;6.074;2024-02-15T13:10:22;16.00;99.90
17619;DHT22;8928;51.678;6.074;2024-02-15T13:13:10;15.90;99.90
17619;DHT22;8928;51.678;6.074;2024-02-15T13:15:57;15.70;99.90
17619;DHT22;8928;51.678;6.074;2024-02-15T13:18:45;15.70;99.90
17619;DHT22;8928;51.678;6.074;2024-02-15T13:21:33;15.70;99.90
17619;DHT22;8928;51.678;6.074;2024-02-15T13:24:21;15.80;99.90
17619;DHT22;8928;51.678;6.074;2024-02-15T13:27:12;15.90;99.90
17619;DHT22;8928;51.678;6.074;2024-02-15T13:29:59;16.10;99.90
17619;DHT22;8928;51.678;6.074;2024-02-15T13:32:46;16.30;99.90
17619;DHT22;8928;51.678;6.074;2024-02-15T13:35:33;16.60;99.90
17619;DHT22;8928;51.678;6.074;2024-02-15T13:38:22;16.90;99.90
17619;DHT22;8928;51.678;6.074;2024-02-15T13:41:10;17.00;99.90
17619;DHT22;8928;51.678;6.074;2024-02-15T13:43:58;17.00;99.90
17619;DHT22;8928;51.678;6.074;2024-02-15T13:46:46;16.80;99.90
17619;DHT22;8928;51.678;6.074;2024-02-15T13:49:35;16.60;99.90
17619;DHT22;8928;51.678;6.074;2024-02-15T13:52:23;16.40;99.90
17619;DHT22;8928;51.678;6.074;2024-02-15T13:55:10;16.30;99.90
17619;DHT22;8928;51.678;6.074;2024-02-15T13:57:59;16.20;99.90
17619;DHT22;8928;51.678;6.074;2024-02-15T14:00:47;16.20;99.90
17619;DHT22;8928;51.678;6.074;2024-02-15T14:03:35;16.20;99.90
17619;DHT22;8928;51.678;6.074;2024-02-15T14:06:22;16.30;99.90
17619;DHT22;8928;51.678;6.074;2024-02-15T14:09:09;16.40;99.90
17619;DHT22;8928;51.678;6.074;2024-02-15T14:11:57;16.60;99.90
17619;DHT22;8928;51.678;6.074;2024-02-15T14:14:46;16.80;99.90
17619;DHT22;8928;51.678;6.074;2024-02-15T14:17:33;16.90;99.90
17619;DHT22;8928;51.678;6.074;2024-02-15T14:20:21;17.00;99.90
17619;DHT22;8928;51.678;6.074;2024-02-15T14:23:09;17.00;99.90
17619;DHT22;8928;51.678;6.074;2024-02-15T15:28:14;15.30;99.90
17619;DHT22;8928;51.678;6.074;2024-02-15T15:31:02;15.30;99.90
17619;DHT22;8928;51.678;6.074;2024-02-15T15:33:50;15.20;99.90
17619;DHT22;8928;51.678;6.074;2024-02-15T15:36:38;15.20;99.90
17619;DHT22;8928;51.678;6.074;2024-02-15T15:39:25;15.20;99.90
17619;DHT22;8928;51.678;6.074;2024-02-15T15:42:15;15.10;99.90
17619;DHT22;8928;51.678;6.074;2024-02-15T15:45:06;15.20;99.90
17619;DHT22;8928;51.678;6.074;2024-02-15T15:47:54;15.30;99.90
17619;DHT22;8928;51.678;6.074;2024-02-15T15:50:41;15.30;99.90
17619;DHT22;8928;51.678;6.074;2024-02-15T15:53:29;15.30;99.90
